sensor_id;sensor_type;location;lat;lon;timestamp;P1;durP1;ratioP1;P2;durP2;ratioP2
77038;SDS011;65970;50.476;4.840;2023-01-31T04:54:16;6.53;;;2.28;;
77038;SDS011;65970;50.476;4.840;2023-01-31T04:59:17;4.80;;;2.67;;
77038;SDS011;65970;50.476;4.840;2023-01-31T05:04:18;3.13;;;2.30;;
77038;SDS011;65970;50.476;4.840;2023-01-31T05:09:19;5.30;;;1.90;;
77038;SDS011;65970;50.476;4.840;2023-01-31T05:19:30;4.10;;;2.15;;
77038;SDS011;65970;50.476;4.840;2023-01-31T05:24:31;4.35;;;2.80;;
77038;SDS011;65970;50.476;4.840;2023-01-31T05:29:32;2.90;;;1.77;;
77038;SDS011;65970;50.476;4.840;2023-01-31T05:34:33;7.95;;;1.52;;
77038;SDS011;65970;50.476;4.840;2023-01-31T05:39:33;10.43;;;2.33;;
77038;SDS011;65970;50.476;4.840;2023-01-31T05:44:36;2.67;;;1.33;;
77038;SDS011;65970;50.476;4.840;2023-01-31T05:49:37;4.90;;;2.00;;
77038;SDS011;65970;50.476;4.840;2023-01-31T05:54:38;2.80;;;1.98;;
77038;SDS011;65970;50.476;4.840;2023-01-31T05:59:38;6.03;;;1.58;;
77038;SDS011;65970;50.476;4.840;2023-01-31T06:04:39;6.95;;;2.10;;
77038;SDS011;65970;50.476;4.840;2023-01-31T06:09:39;6.88;;;1.73;;
77038;SDS011;65970;50.476;4.840;2023-01-31T06:14:40;4.47;;;1.55;;
77038;SDS011;65970;50.476;4.840;2023-01-31T06:19:41;9.80;;;1.70;;
77038;SDS011;65970;50.476;4.840;2023-01-31T06:24:41;4.75;;;1.75;;
77038;SDS011;65970;50.476;4.840;2023-01-31T06:29:42;3.03;;;1.98;;
77038;SDS011;65970;50.476;4.840;2023-01-31T06:34:42;6.60;;;1.70;;
77038;SDS011;65970;50.476;4.840;2023-01-31T06:39:43;6.07;;;2.17;;
77038;SDS011;65970;50.476;4.840;2023-01-31T06:44:43;4.95;;;2.15;;
77038;SDS011;65970;50.476;4.840;2023-01-31T06:49:44;7.30;;;2.10;;
77038;SDS011;65970;50.476;4.840;2023-01-31T06:54:44;4.20;;;1.83;;
77038;SDS011;65970;50.476;4.840;2023-01-31T06:59:45;7.97;;;2.45;;
77038;SDS011;65970;50.476;4.840;2023-01-31T07:04:45;4.55;;;2.00;;
77038;SDS011;65970;50.476;4.840;2023-01-31T07:09:46;8.27;;;2.92;;
77038;SDS011;65970;50.476;4.840;2023-01-31T07:14:47;2.97;;;1.67;;
77038;SDS011;65970;50.476;4.840;2023-01-31T07:19:47;3.40;;;1.98;;
77038;SDS011;65970;50.476;4.840;2023-01-31T07:24:48;5.53;;;2.05;;
77038;SDS011;65970;50.476;4.840;2023-01-31T07:29:48;4.20;;;2.10;;
77038;SDS011;65970;50.476;4.840;2023-01-31T07:34:49;7.53;;;2.00;;
77038;SDS011;65970;50.476;4.840;2023-01-31T07:39:49;13.10;;;3.63;;
77038;SDS011;65970;50.476;4.840;2023-01-31T07:44:50;6.95;;;2.90;;
77038;SDS011;65970;50.476;4.840;2023-01-31T07:49:50;4.38;;;1.73;;
77038;SDS011;65970;50.476;4.840;2023-01-31T07:54:51;6.82;;;2.65;;
77038;SDS011;65970;50.476;4.840;2023-01-31T07:59:51;5.60;;;2.17;;
77038;SDS011;65970;50.476;4.840;2023-01-31T08:10:04;7.93;;;2.03;;
77038;SDS011;65970;50.476;4.840;2023-01-31T08:15:19;5.75;;;2.17;;
77038;SDS011;65970;50.476;4.840;2023-01-31T08:20:20;4.68;;;2.15;;
77038;SDS011;65970;50.476;4.840;2023-01-31T08:25:20;9.43;;;3.20;;
77038;SDS011;65970;50.476;4.840;2023-01-31T08:30:21;5.07;;;2.70;;
77038;SDS011;65970;50.476;4.840;2023-01-31T08:35:24;4.43;;;2.30;;
77038;SDS011;65970;50.476;4.840;2023-01-31T08:40:25;5.45;;;1.98;;
77038;SDS011;65970;50.476;4.840;2023-01-31T08:45:27;9.90;;;2.95;;
77038;SDS011;65970;50.476;4.840;2023-01-31T08:50:30;5.43;;;2.60;;
77038;SDS011;65970;50.476;4.840;2023-01-31T08:55:33;3.67;;;1.83;;
77038;SDS011;65970;50.476;4.840;2023-01-31T09:00:34;7.40;;;2.03;;
77038;SDS011;65970;50.476;4.840;2023-01-31T09:05:35;6.45;;;3.10;;
77038;SDS011;65970;50.476;4.840;2023-01-31T09:10:36;4.90;;;2.08;;
77038;SDS011;65970;50.476;4.840;2023-01-31T09:15:37;6.32;;;2.88;;
77038;SDS011;65970;50.476;4.840;2023-01-31T09:20:37;5.38;;;2.72;;
77038;SDS011;65970;50.476;4.840;2023-01-31T09:25:38;6.65;;;2.13;;
77038;SDS011;65970;50.476;4.840;2023-01-31T09:30:38;6.63;;;2.53;;
77038;SDS011;65970;50.476;4.840;2023-01-31T09:35:39;8.35;;;2.28;;
77038;SDS011;65970;50.476;4.840;2023-01-31T09:40:39;8.18;;;2.58;;
77038;SDS011;65970;50.476;4.840;2023-01-31T09:45:40;6.97;;;2.15;;
77038;SDS011;65970;50.476;4.840;2023-01-31T09:50:48;7.20;;;2.90;;
77038;SDS011;65970;50.476;4.840;2023-01-31T09:56:03;9.63;;;2.38;;
77038;SDS011;65970;50.476;4.840;2023-01-31T10:12:19;7.13;;;2.80;;
77038;SDS011;65970;50.476;4.840;2023-01-31T10:17:46;4.68;;;2.63;;
77038;SDS011;65970;50.476;4.840;2023-01-31T10:22:58;5.78;;;2.55;;
77038;SDS011;65970;50.476;4.840;2023-01-31T10:33:48;4.28;;;2.40;;
77038;SDS011;65970;50.476;4.840;2023-01-31T10:44:19;5.47;;;2.90;;
77038;SDS011;65970;50.476;4.840;2023-01-31T10:49:33;4.90;;;2.38;;
77038;SDS011;65970;50.476;4.840;2023-01-31T10:54:48;7.43;;;1.95;;
77038;SDS011;65970;50.476;4.840;2023-01-31T10:59:57;6.75;;;2.13;;
77038;SDS011;65970;50.476;4.840;2023-01-31T11:04:58;7.20;;;2.90;;
77038;SDS011;65970;50.476;4.840;2023-01-31T11:09:59;9.02;;;3.00;;
77038;SDS011;65970;50.476;4.840;2023-01-31T11:15:19;10.82;;;2.75;;
77038;SDS011;65970;50.476;4.840;2023-01-31T11:20:31;5.28;;;2.67;;
77038;SDS011;65970;50.476;4.840;2023-01-31T11:25:35;8.35;;;3.30;;
77038;SDS011;65970;50.476;4.840;2023-01-31T11:30:37;6.43;;;2.95;;
77038;SDS011;65970;50.476;4.840;2023-01-31T11:35:39;6.90;;;3.10;;
77038;SDS011;65970;50.476;4.840;2023-01-31T11:40:51;5.75;;;2.83;;
77038;SDS011;65970;50.476;4.840;2023-01-31T11:46:00;3.95;;;2.72;;
77038;SDS011;65970;50.476;4.840;2023-01-31T11:51:02;7.65;;;2.63;;
77038;SDS011;65970;50.476;4.840;2023-01-31T11:56:09;7.00;;;3.28;;
77038;SDS011;65970;50.476;4.840;2023-01-31T12:01:20;6.75;;;2.95;;
77038;SDS011;65970;50.476;4.840;2023-01-31T12:06:28;3.53;;;2.53;;
77038;SDS011;65970;50.476;4.840;2023-01-31T12:11:32;4.82;;;2.65;;
77038;SDS011;65970;50.476;4.840;2023-01-31T12:16:34;8.25;;;2.92;;
77038;SDS011;65970;50.476;4.840;2023-01-31T12:32:20;6.30;;;2.90;;
77038;SDS011;65970;50.476;4.840;2023-01-31T12:42:56;7.55;;;3.47;;
77038;SDS011;65970;50.476;4.840;2023-01-31T12:59:14;5.75;;;3.42;;
77038;SDS011;65970;50.476;4.840;2023-01-31T13:09:20;6.95;;;4.05;;
77038;SDS011;65970;50.476;4.840;2023-01-31T13:14:31;9.57;;;4.45;;
77038;SDS011;65970;50.476;4.840;2023-01-31T13:19:38;5.80;;;3.85;;
77038;SDS011;65970;50.476;4.840;2023-01-31T13:24:58;10.18;;;3.85;;
77038;SDS011;65970;50.476;4.840;2023-01-31T13:30:31;8.75;;;4.00;;
77038;SDS011;65970;50.476;4.840;2023-01-31T13:35:38;6.40;;;2.88;;
77038;SDS011;65970;50.476;4.840;2023-01-31T13:41:00;7.45;;;3.35;;
77038;SDS011;65970;50.476;4.840;2023-01-31T13:46:04;10.68;;;3.03;;
77038;SDS011;65970;50.476;4.840;2023-01-31T13:51:11;3.70;;;2.45;;
77038;SDS011;65970;50.476;4.840;2023-01-31T13:56:21;7.38;;;2.85;;
77038;SDS011;65970;50.476;4.840;2023-01-31T14:01:29;7.40;;;3.03;;
77038;SDS011;65970;50.476;4.840;2023-01-31T14:06:54;4.63;;;2.58;;
77038;SDS011;65970;50.476;4.840;2023-01-31T14:27:29;6.05;;;2.75;;
77038;SDS011;65970;50.476;4.840;2023-01-31T14:43:54;5.22;;;3.45;;
77038;SDS011;65970;50.476;4.840;2023-01-31T15:04:21;5.40;;;2.67;;
77038;SDS011;65970;50.476;4.840;2023-01-31T15:09:26;4.72;;;2.80;;
77038;SDS011;65970;50.476;4.840;2023-01-31T15:14:35;3.85;;;2.40;;
77038;SDS011;65970;50.476;4.840;2023-01-31T15:19:42;4.55;;;2.92;;
77038;SDS011;65970;50.476;4.840;2023-01-31T15:24:57;7.68;;;2.40;;
77038;SDS011;65970;50.476;4.840;2023-01-31T15:30:10;5.18;;;3.75;;
77038;SDS011;65970;50.476;4.840;2023-01-31T15:35:18;2.83;;;2.55;;
77038;SDS011;65970;50.476;4.840;2023-01-31T15:40:22;5.00;;;3.83;;
77038;SDS011;65970;50.476;4.840;2023-01-31T15:45:28;4.20;;;2.90;;
77038;SDS011;65970;50.476;4.840;2023-01-31T15:50:30;4.68;;;3.35;;
77038;SDS011;65970;50.476;4.840;2023-01-31T15:55:33;12.05;;;4.88;;
77038;SDS011;65970;50.476;4.840;2023-01-31T16:00:35;9.23;;;5.45;;
77038;SDS011;65970;50.476;4.840;2023-01-31T16:05:37;8.07;;;5.30;;
77038;SDS011;65970;50.476;4.840;2023-01-31T16:10:38;6.50;;;4.20;;
77038;SDS011;65970;50.476;4.840;2023-01-31T16:15:40;6.95;;;3.65;;
77038;SDS011;65970;50.476;4.840;2023-01-31T16:25:48;6.43;;;3.55;;
77038;SDS011;65970;50.476;4.840;2023-01-31T16:31:03;3.13;;;2.83;;
77038;SDS011;65970;50.476;4.840;2023-01-31T16:36:06;5.32;;;3.25;;
77038;SDS011;65970;50.476;4.840;2023-01-31T16:41:12;6.00;;;2.90;;
77038;SDS011;65970;50.476;4.840;2023-01-31T16:46:37;6.15;;;3.42;;
77038;SDS011;65970;50.476;4.840;2023-01-31T16:51:40;6.22;;;3.28;;
77038;SDS011;65970;50.476;4.840;2023-01-31T16:56:42;5.53;;;3.88;;
77038;SDS011;65970;50.476;4.840;2023-01-31T17:01:46;5.43;;;4.60;;
77038;SDS011;65970;50.476;4.840;2023-01-31T17:07:00;7.10;;;4.97;;
77038;SDS011;65970;50.476;4.840;2023-01-31T17:12:03;5.97;;;4.65;;
77038;SDS011;65970;50.476;4.840;2023-01-31T17:17:05;8.18;;;4.78;;
77038;SDS011;65970;50.476;4.840;2023-01-31T17:22:09;7.90;;;4.20;;
77038;SDS011;65970;50.476;4.840;2023-01-31T17:27:13;7.15;;;5.95;;
77038;SDS011;65970;50.476;4.840;2023-01-31T17:32:16;6.68;;;3.88;;
77038;SDS011;65970;50.476;4.840;2023-01-31T17:37:18;4.07;;;3.75;;
77038;SDS011;65970;50.476;4.840;2023-01-31T17:42:19;5.03;;;4.10;;
77038;SDS011;65970;50.476;4.840;2023-01-31T17:47:20;7.07;;;4.03;;
77038;SDS011;65970;50.476;4.840;2023-01-31T17:52:21;7.35;;;3.90;;
77038;SDS011;65970;50.476;4.840;2023-01-31T17:57:21;5.68;;;4.55;;
77038;SDS011;65970;50.476;4.840;2023-01-31T18:02:22;5.88;;;4.03;;
77038;SDS011;65970;50.476;4.840;2023-01-31T18:07:23;8.75;;;4.72;;
77038;SDS011;65970;50.476;4.840;2023-01-31T18:12:23;7.07;;;4.90;;
77038;SDS011;65970;50.476;4.840;2023-01-31T18:17:24;3.88;;;3.17;;
77038;SDS011;65970;50.476;4.840;2023-01-31T18:22:25;5.03;;;3.10;;
77038;SDS011;65970;50.476;4.840;2023-01-31T18:27:26;5.57;;;3.08;;
77038;SDS011;65970;50.476;4.840;2023-01-31T18:32:26;4.30;;;3.42;;
77038;SDS011;65970;50.476;4.840;2023-01-31T18:37:27;5.93;;;2.80;;
77038;SDS011;65970;50.476;4.840;2023-01-31T18:42:27;3.85;;;2.67;;
77038;SDS011;65970;50.476;4.840;2023-01-31T18:47:28;3.58;;;3.20;;
77038;SDS011;65970;50.476;4.840;2023-01-31T18:52:29;2.80;;;2.47;;
77038;SDS011;65970;50.476;4.840;2023-01-31T18:57:29;3.17;;;2.63;;
77038;SDS011;65970;50.476;4.840;2023-01-31T19:02:30;5.43;;;3.50;;
77038;SDS011;65970;50.476;4.840;2023-01-31T19:07:30;4.13;;;3.38;;
77038;SDS011;65970;50.476;4.840;2023-01-31T19:12:31;3.33;;;2.97;;
77038;SDS011;65970;50.476;4.840;2023-01-31T19:17:32;3.83;;;3.20;;
77038;SDS011;65970;50.476;4.840;2023-01-31T19:22:32;5.00;;;3.38;;
77038;SDS011;65970;50.476;4.840;2023-01-31T19:27:33;3.25;;;2.95;;
77038;SDS011;65970;50.476;4.840;2023-01-31T19:32:33;5.43;;;3.17;;
77038;SDS011;65970;50.476;4.840;2023-01-31T19:37:34;5.57;;;3.88;;
77038;SDS011;65970;50.476;4.840;2023-01-31T19:42:34;6.95;;;3.55;;
77038;SDS011;65970;50.476;4.840;2023-01-31T19:47:35;4.13;;;3.20;;
77038;SDS011;65970;50.476;4.840;2023-01-31T19:52:36;6.18;;;3.95;;
77038;SDS011;65970;50.476;4.840;2023-01-31T19:57:36;5.28;;;3.97;;
77038;SDS011;65970;50.476;4.840;2023-01-31T20:02:38;11.23;;;5.93;;
77038;SDS011;65970;50.476;4.840;2023-01-31T20:07:39;17.27;;;6.00;;
77038;SDS011;65970;50.476;4.840;2023-01-31T20:12:40;8.77;;;5.60;;
77038;SDS011;65970;50.476;4.840;2023-01-31T20:17:41;7.40;;;4.00;;
77038;SDS011;65970;50.476;4.840;2023-01-31T20:22:41;12.00;;;4.53;;
77038;SDS011;65970;50.476;4.840;2023-01-31T20:58:47;5.40;;;4.03;;
77038;SDS011;65970;50.476;4.840;2023-01-31T21:08:48;4.72;;;3.25;;
77038;SDS011;65970;50.476;4.840;2023-01-31T21:18:52;6.10;;;4.22;;
77038;SDS011;65970;50.476;4.840;2023-01-31T21:23:53;8.80;;;3.78;;
77038;SDS011;65970;50.476;4.840;2023-01-31T21:28:58;6.78;;;3.88;;
77038;SDS011;65970;50.476;4.840;2023-01-31T21:33:59;9.38;;;4.00;;
77038;SDS011;65970;50.476;4.840;2023-01-31T21:39:00;9.95;;;4.60;;
77038;SDS011;65970;50.476;4.840;2023-01-31T21:44:01;4.65;;;3.85;;
77038;SDS011;65970;50.476;4.840;2023-01-31T21:49:02;9.45;;;4.93;;
77038;SDS011;65970;50.476;4.840;2023-01-31T21:54:03;7.85;;;3.83;;
77038;SDS011;65970;50.476;4.840;2023-01-31T21:59:05;9.05;;;5.05;;
77038;SDS011;65970;50.476;4.840;2023-01-31T22:04:05;9.35;;;4.72;;
77038;SDS011;65970;50.476;4.840;2023-01-31T22:09:08;12.10;;;4.63;;
77038;SDS011;65970;50.476;4.840;2023-01-31T22:19:13;7.25;;;3.90;;
77038;SDS011;65970;50.476;4.840;2023-01-31T22:24:14;6.90;;;3.80;;
77038;SDS011;65970;50.476;4.840;2023-01-31T22:29:15;6.72;;;5.03;;
77038;SDS011;65970;50.476;4.840;2023-01-31T22:34:15;9.00;;;4.32;;
77038;SDS011;65970;50.476;4.840;2023-01-31T22:39:16;7.47;;;4.78;;
77038;SDS011;65970;50.476;4.840;2023-01-31T22:44:17;10.25;;;5.75;;
77038;SDS011;65970;50.476;4.840;2023-01-31T22:49:17;9.80;;;5.45;;
77038;SDS011;65970;50.476;4.840;2023-01-31T22:54:18;14.27;;;7.40;;
77038;SDS011;65970;50.476;4.840;2023-01-31T22:59:18;10.75;;;5.75;;
77038;SDS011;65970;50.476;4.840;2023-01-31T23:04:19;11.40;;;4.90;;
77038;SDS011;65970;50.476;4.840;2023-01-31T23:09:20;12.38;;;5.60;;
77038;SDS011;65970;50.476;4.840;2023-01-31T23:14:20;10.32;;;5.32;;
77038;SDS011;65970;50.476;4.840;2023-01-31T23:19:21;11.85;;;6.85;;
77038;SDS011;65970;50.476;4.840;2023-01-31T23:24:21;12.88;;;6.85;;
77038;SDS011;65970;50.476;4.840;2023-01-31T23:29:22;12.35;;;6.53;;
77038;SDS011;65970;50.476;4.840;2023-01-31T23:34:22;12.13;;;6.28;;
77038;SDS011;65970;50.476;4.840;2023-01-31T23:39:23;17.20;;;7.05;;
77038;SDS011;65970;50.476;4.840;2023-01-31T23:44:24;11.93;;;6.18;;
77038;SDS011;65970;50.476;4.840;2023-01-31T23:49:24;14.23;;;7.22;;
77038;SDS011;65970;50.476;4.840;2023-01-31T23:54:25;13.95;;;6.18;;
77038;SDS011;65970;50.476;4.840;2023-01-31T23:59:25;12.73;;;6.13;;
